createdAt,value
2022-12-29T00:00:18.941Z,57.68
2022-12-29T00:02:45.884Z,57.65
2022-12-29T00:05:12.774Z,57.26
2022-12-29T00:07:39.585Z,57.84
2022-12-29T00:10:07.083Z,58.82
2022-12-29T00:12:53.714Z,58.80
2022-12-29T00:15:39.049Z,58.53
2022-12-29T00:18:06.531Z,58.39
2022-12-29T00:20:56.569Z,58.18
2022-12-29T00:23:42.645Z,58.50
2022-12-29T00:26:32.835Z,58.32
2022-12-29T00:29:18.531Z,59.18
2022-12-29T00:32:03.846Z,59.60
2022-12-29T00:34:49.314Z,58.46
2022-12-29T00:37:16.766Z,58.54
2022-12-29T00:40:02.134Z,59.31
2022-12-29T00:42:47.380Z,58.43
2022-12-29T00:45:15.029Z,58.25
2022-12-29T00:47:41.716Z,60.30
2022-12-29T00:50:08.914Z,58.85
2022-12-29T00:52:35.656Z,59.04
2022-12-29T00:55:02.372Z,58.78
2022-12-29T00:57:29.101Z,57.82
2022-12-29T00:59:55.859Z,57.58
2022-12-29T01:02:22.696Z,58.34
2022-12-29T01:04:49.596Z,58.45
2022-12-29T01:07:16.798Z,59.02
2022-12-29T01:10:03.967Z,59.39
2022-12-29T01:12:42.653Z,59.66
2022-12-29T01:15:12.734Z,59.21
2022-12-29T01:17:39.546Z,58.32
2022-12-29T01:20:06.968Z,58.40
2022-12-29T01:22:34.172Z,57.56
2022-12-29T01:25:00.875Z,57.51
2022-12-29T01:27:27.584Z,57.81
2022-12-29T01:29:54.292Z,57.26
2022-12-29T01:32:22.106Z,57.21
2022-12-29T01:34:48.860Z,57.51
2022-12-29T01:37:15.666Z,57.53
2022-12-29T01:39:42.411Z,57.88
2022-12-29T01:42:20.286Z,57.51
2022-12-29T01:44:58.769Z,57.87
2022-12-29T01:47:51.381Z,57.76
2022-12-29T01:50:20.375Z,57.79
2022-12-29T01:52:59.762Z,57.96
2022-12-29T01:55:32.446Z,58.03
2022-12-29T01:58:03.397Z,57.50
2022-12-29T02:00:31.059Z,58.67
2022-12-29T02:02:58.000Z,57.88
2022-12-29T02:05:31.462Z,58.45
2022-12-29T02:07:58.741Z,58.37
2022-12-29T02:10:28.764Z,58.11
2022-12-29T02:12:57.237Z,57.59
2022-12-29T02:15:36.700Z,58.06
2022-12-29T02:18:35.111Z,57.95
2022-12-29T02:21:11.966Z,57.72
2022-12-29T02:23:51.049Z,57.77
2022-12-29T02:26:50.978Z,57.45
2022-12-29T02:30:03.049Z,57.72
2022-12-29T02:32:36.020Z,57.58
2022-12-29T02:35:18.159Z,57.07
2022-12-29T02:37:53.733Z,57.40
2022-12-29T02:40:26.782Z,57.19
2022-12-29T02:43:18.679Z,57.64
2022-12-29T02:46:19.605Z,57.62
2022-12-29T02:49:01.443Z,56.65
2022-12-29T02:51:51.526Z,56.90
2022-12-29T02:54:38.693Z,56.71
2022-12-29T02:57:30.698Z,56.01
2022-12-29T03:00:08.573Z,55.79
2022-12-29T03:02:54.244Z,56.48
2022-12-29T03:05:49.470Z,56.10
2022-12-29T03:08:43.691Z,56.61
2022-12-29T03:11:33.770Z,56.66
2022-12-29T03:14:39.447Z,56.83
2022-12-29T03:17:27.516Z,56.72
2022-12-29T03:20:00.374Z,56.95
2022-12-29T03:22:33.470Z,57.00
2022-12-29T03:25:23.536Z,56.29
2022-12-29T03:28:06.207Z,55.93
2022-12-29T03:30:41.361Z,56.57
2022-12-29T03:33:15.992Z,56.96
2022-12-29T03:35:45.209Z,56.95
2022-12-29T03:38:25.075Z,56.80
2022-12-29T03:40:56.792Z,56.88
2022-12-29T03:43:26.430Z,56.76
2022-12-29T03:45:53.303Z,56.63
2022-12-29T03:48:20.125Z,57.06
2022-12-29T03:50:48.967Z,56.92
2022-12-29T03:53:16.845Z,56.53
2022-12-29T03:55:43.760Z,56.55
2022-12-29T03:58:11.578Z,56.85
2022-12-29T04:00:51.009Z,57.52
2022-12-29T04:03:18.400Z,56.63
2022-12-29T04:05:45.449Z,56.56
2022-12-29T04:08:12.538Z,57.23
2022-12-29T04:10:39.756Z,57.68
2022-12-29T04:13:07.527Z,57.60
2022-12-29T04:15:35.645Z,58.56
2022-12-29T04:18:02.805Z,60.52
2022-12-29T04:20:47.855Z,58.90
2022-12-29T04:23:14.965Z,59.07
2022-12-29T04:25:41.825Z,59.27
2022-12-29T04:28:10.144Z,58.88
2022-12-29T04:31:09.558Z,59.97
2022-12-29T04:33:39.861Z,59.44
2022-12-29T04:36:07.426Z,58.81
2022-12-29T04:38:35.983Z,58.89
2022-12-29T04:41:05.244Z,58.00
2022-12-29T04:43:33.476Z,57.62
2022-12-29T04:46:09.817Z,57.80
2022-12-29T04:48:45.420Z,58.83
2022-12-29T04:51:38.548Z,58.10
2022-12-29T04:54:07.901Z,57.95
2022-12-29T04:56:35.524Z,58.31
2022-12-29T04:59:02.377Z,58.42
2022-12-29T05:01:29.215Z,58.55
2022-12-29T05:03:56.083Z,58.37
2022-12-29T05:06:24.171Z,58.11
2022-12-29T05:08:50.899Z,58.40
2022-12-29T05:11:18.719Z,58.03
2022-12-29T05:13:48.087Z,57.92
2022-12-29T05:16:16.853Z,58.08
2022-12-29T05:18:44.394Z,58.10
2022-12-29T05:21:11.311Z,57.87
2022-12-29T05:23:40.389Z,57.75
2022-12-29T05:26:07.230Z,57.69
2022-12-29T05:28:48.465Z,57.82
2022-12-29T05:31:19.253Z,57.28
2022-12-29T05:33:46.121Z,59.50
2022-12-29T05:36:14.257Z,60.02
2022-12-29T05:38:46.263Z,59.08
2022-12-29T05:41:13.730Z,58.91
2022-12-29T05:43:56.073Z,58.61
2022-12-29T05:46:44.682Z,58.72
2022-12-29T05:49:18.114Z,58.64
2022-12-29T05:52:42.448Z,58.59
2022-12-29T05:55:09.703Z,59.05
2022-12-29T05:57:38.083Z,59.35
2022-12-29T06:00:11.760Z,59.27
2022-12-29T06:02:47.211Z,58.67
2022-12-29T06:05:16.037Z,58.09
2022-12-29T06:07:43.227Z,58.40
2022-12-29T06:10:10.324Z,58.25
2022-12-29T06:12:50.815Z,58.20
2022-12-29T06:15:17.750Z,58.27
2022-12-29T06:17:46.056Z,58.34
2022-12-29T06:20:13.079Z,58.56
2022-12-29T06:22:40.231Z,58.64
2022-12-29T06:25:08.653Z,58.66
2022-12-29T06:27:36.288Z,58.81
2022-12-29T06:30:03.891Z,58.88
2022-12-29T06:32:30.813Z,58.55
2022-12-29T06:35:03.959Z,58.67
2022-12-29T06:37:31.197Z,59.07
2022-12-29T06:39:57.964Z,58.46
2022-12-29T06:42:30.971Z,58.03
2022-12-29T06:45:30.425Z,58.12
2022-12-29T06:47:57.386Z,58.46
2022-12-29T06:50:24.231Z,58.26
2022-12-29T06:52:50.966Z,58.73
2022-12-29T06:55:17.896Z,58.49
2022-12-29T06:57:44.681Z,58.25
2022-12-29T07:00:11.800Z,57.75
2022-12-29T07:02:38.723Z,57.78
2022-12-29T07:05:05.997Z,57.22
2022-12-29T07:07:32.761Z,56.96
2022-12-29T07:09:59.624Z,57.09
2022-12-29T07:12:26.594Z,56.14
2022-12-29T07:14:53.385Z,56.31
2022-12-29T07:17:20.270Z,55.75
2022-12-29T07:19:47.045Z,55.68
2022-12-29T07:22:13.745Z,55.88
2022-12-29T07:24:41.435Z,55.76
2022-12-29T07:27:08.218Z,55.67
2022-12-29T07:29:34.983Z,54.91
2022-12-29T07:32:01.769Z,54.74
2022-12-29T07:34:28.705Z,54.84
2022-12-29T07:36:55.441Z,54.66
2022-12-29T07:39:22.216Z,54.16
2022-12-29T07:41:49.205Z,54.00
2022-12-29T07:44:20.678Z,54.42
2022-12-29T07:46:56.513Z,54.04
2022-12-29T07:49:25.081Z,54.08
2022-12-29T07:51:52.036Z,54.15
2022-12-29T07:54:23.523Z,54.24
2022-12-29T07:56:51.364Z,53.98
2022-12-29T07:59:18.255Z,53.35
2022-12-29T08:01:45.400Z,53.59
2022-12-29T08:04:12.271Z,52.53
2022-12-29T08:06:39.352Z,52.00
2022-12-29T08:09:13.416Z,51.49
2022-12-29T08:11:44.474Z,51.29
2022-12-29T08:14:11.402Z,51.24
2022-12-29T08:16:39.220Z,50.76
2022-12-29T08:19:06.126Z,50.67
2022-12-29T08:21:33.201Z,50.36
2022-12-29T08:24:00.215Z,50.05
2022-12-29T08:26:27.121Z,49.65
2022-12-29T08:28:55.549Z,49.42
2022-12-29T08:31:23.672Z,49.38
2022-12-29T08:33:50.731Z,49.17
2022-12-29T08:36:18.120Z,49.67
2022-12-29T08:38:44.870Z,48.01
2022-12-29T08:41:11.740Z,48.66
2022-12-29T08:43:38.540Z,48.08
2022-12-29T08:46:05.372Z,47.42
2022-12-29T08:48:32.214Z,46.52
2022-12-29T08:50:59.022Z,46.23
2022-12-29T08:53:25.690Z,45.52
2022-12-29T08:56:05.163Z,44.68
2022-12-29T08:58:41.517Z,44.83
2022-12-29T09:01:10.807Z,44.08
2022-12-29T09:04:12.642Z,45.21
2022-12-29T09:06:24.988Z,45.01
2022-12-29T09:08:51.736Z,44.72
2022-12-29T09:11:24.339Z,43.70
2022-12-29T09:13:51.864Z,43.90
2022-12-29T09:16:19.240Z,42.94
2022-12-29T09:18:46.188Z,43.51
2022-12-29T09:21:14.976Z,43.30
2022-12-29T09:23:43.755Z,43.29
2022-12-29T09:26:10.911Z,42.47
2022-12-29T09:28:37.833Z,42.93
2022-12-29T09:31:05.230Z,42.28
2022-12-29T09:33:34.381Z,43.14
2022-12-29T09:36:01.427Z,43.02
2022-12-29T09:38:29.482Z,42.31
2022-12-29T09:41:09.495Z,43.15
2022-12-29T09:43:54.976Z,42.43
2022-12-29T09:46:30.690Z,42.33
2022-12-29T09:49:09.390Z,41.58
2022-12-29T09:51:39.077Z,41.83
2022-12-29T09:54:24.221Z,43.03
2022-12-29T09:56:53.159Z,42.04
2022-12-29T09:59:25.567Z,43.35
2022-12-29T10:02:07.045Z,42.40
2022-12-29T10:04:33.984Z,42.04
2022-12-29T10:07:30.673Z,42.06
2022-12-29T10:10:11.216Z,42.60
2022-12-29T10:12:53.124Z,42.90
2022-12-29T10:15:43.057Z,43.29
2022-12-29T10:18:19.642Z,43.96
2022-12-29T10:20:58.359Z,43.23
2022-12-29T10:23:30.645Z,42.87
2022-12-29T10:25:59.305Z,43.01
2022-12-29T10:28:52.015Z,41.51
2022-12-29T10:31:30.758Z,44.15
2022-12-29T10:34:02.476Z,43.08
2022-12-29T10:36:39.669Z,43.06
2022-12-29T10:39:06.296Z,44.13
2022-12-29T10:41:42.240Z,43.64
2022-12-29T10:44:14.536Z,43.66
2022-12-29T10:46:44.083Z,42.46
2022-12-29T10:49:21.568Z,42.23
2022-12-29T10:51:53.084Z,44.57
2022-12-29T10:54:28.982Z,43.45
2022-12-29T10:59:51.364Z,45.34
2022-12-29T11:02:52.322Z,44.47
2022-12-29T11:05:39.032Z,43.66
2022-12-29T11:08:11.776Z,44.19
2022-12-29T11:10:43.783Z,44.92
2022-12-29T11:13:17.798Z,44.37
2022-12-29T11:15:47.880Z,44.34
2022-12-29T11:18:34.323Z,44.40
2022-12-29T11:21:03.905Z,44.79
2022-12-29T11:23:34.615Z,43.39
2022-12-29T11:26:07.103Z,44.02
2022-12-29T11:28:34.441Z,43.97
2022-12-29T11:31:03.511Z,45.28
2022-12-29T11:33:31.123Z,45.70
2022-12-29T11:36:09.508Z,45.14
2022-12-29T11:38:40.842Z,45.32
2022-12-29T11:41:13.106Z,44.31
2022-12-29T11:43:44.521Z,44.08
2022-12-29T11:46:18.526Z,44.21
2022-12-29T11:48:47.726Z,43.78
2022-12-29T11:51:28.467Z,44.44
2022-12-29T11:54:01.947Z,43.24
2022-12-29T11:56:42.109Z,42.35
2022-12-29T11:59:37.677Z,40.60
2022-12-29T12:02:42.204Z,38.98
2022-12-29T12:05:23.750Z,39.33
2022-12-29T12:07:57.633Z,38.32
2022-12-29T12:10:31.261Z,37.84
2022-12-29T12:13:09.248Z,37.24
2022-12-29T12:15:47.446Z,35.91
2022-12-29T12:18:40.191Z,35.23
2022-12-29T12:21:17.381Z,33.99
2022-12-29T12:24:01.185Z,33.42
2022-12-29T12:26:58.001Z,34.79
2022-12-29T12:29:44.163Z,34.78
2022-12-29T12:32:16.763Z,36.08
2022-12-29T12:34:45.634Z,35.05
2022-12-29T12:37:40.270Z,34.24
2022-12-29T12:40:36.375Z,34.10
2022-12-29T12:43:34.020Z,32.29
2022-12-29T12:46:33.562Z,30.60
2022-12-29T12:49:25.551Z,31.46
2022-12-29T12:52:15.512Z,30.64
2022-12-29T12:55:19.219Z,31.00
2022-12-29T12:57:51.686Z,30.89
2022-12-29T13:00:20.669Z,31.69
2022-12-29T13:03:07.750Z,32.48
2022-12-29T13:06:08.020Z,33.48
2022-12-29T13:08:34.697Z,33.34
2022-12-29T13:11:10.503Z,33.79
2022-12-29T13:14:13.660Z,35.12
2022-12-29T13:16:58.525Z,34.89
2022-12-29T13:19:41.751Z,33.44
2022-12-29T13:22:19.808Z,33.28
2022-12-29T13:25:26.277Z,33.87
2022-12-29T13:28:01.988Z,37.94
2022-12-29T13:31:01.055Z,39.17
2022-12-29T13:33:39.721Z,40.00
2022-12-29T13:36:18.089Z,39.03
2022-12-29T13:38:49.908Z,39.80
2022-12-29T13:41:34.247Z,40.58
2022-12-29T13:44:04.693Z,41.23
2022-12-29T13:46:43.957Z,42.18
2022-12-29T13:49:21.950Z,42.17
2022-12-29T13:52:14.326Z,43.21
2022-12-29T13:55:17.012Z,44.34
2022-12-29T13:57:56.453Z,43.48
2022-12-29T14:00:25.976Z,43.70
2022-12-29T14:03:30.883Z,43.81
2022-12-29T14:06:30.252Z,44.27
2022-12-29T14:09:00.712Z,44.44
2022-12-29T14:11:39.499Z,44.98
2022-12-29T14:14:32.884Z,44.86
2022-12-29T14:17:15.285Z,44.67
2022-12-29T14:19:46.504Z,44.93
2022-12-29T14:22:13.862Z,45.54
2022-12-29T14:24:43.689Z,45.65
2022-12-29T14:27:10.448Z,46.59
2022-12-29T14:29:40.271Z,47.39
2022-12-29T14:32:22.587Z,47.60
2022-12-29T14:34:52.535Z,48.61
2022-12-29T14:37:32.026Z,49.77
2022-12-29T14:40:27.884Z,49.14
2022-12-29T14:42:58.489Z,48.28
2022-12-29T14:45:30.204Z,47.94
2022-12-29T14:47:57.765Z,47.33
2022-12-29T14:50:44.929Z,47.85
2022-12-29T14:53:44.045Z,48.44
2022-12-29T14:56:13.336Z,48.34
2022-12-29T14:59:00.926Z,49.24
2022-12-29T15:01:40.903Z,49.11
2022-12-29T15:04:16.122Z,48.08
2022-12-29T15:06:45.875Z,50.01
2022-12-29T15:09:37.476Z,49.37
2022-12-29T15:12:38.613Z,49.26
2022-12-29T15:15:25.575Z,50.18
2022-12-29T15:17:52.734Z,49.68
2022-12-29T15:20:31.464Z,50.32
2022-12-29T15:23:03.242Z,51.27
2022-12-29T15:25:31.918Z,50.93
2022-12-29T15:28:03.261Z,50.62
2022-12-29T15:30:30.145Z,50.02
2022-12-29T15:32:57.056Z,50.19
2022-12-29T15:35:53.635Z,49.90
2022-12-29T15:38:34.745Z,50.48
2022-12-29T15:41:16.487Z,50.57
2022-12-29T15:44:34.353Z,52.01
2022-12-29T15:47:06.671Z,51.62
2022-12-29T15:49:34.064Z,51.68
2022-12-29T15:52:00.931Z,51.74
2022-12-29T15:54:31.569Z,51.18
2022-12-29T15:56:58.270Z,49.45
2022-12-29T15:59:34.466Z,49.10
2022-12-29T16:02:10.117Z,48.71
2022-12-29T16:05:01.346Z,49.50
2022-12-29T16:07:37.281Z,50.16
2022-12-29T16:10:06.542Z,49.56
2022-12-29T16:12:39.339Z,49.99
2022-12-29T16:15:13.912Z,50.67
2022-12-29T16:17:53.927Z,50.57
2022-12-29T16:20:32.717Z,51.77
2022-12-29T16:23:00.923Z,51.94
2022-12-29T16:25:35.359Z,52.52
2022-12-29T16:28:04.592Z,52.71
2022-12-29T16:30:34.431Z,52.57
2022-12-29T16:33:06.566Z,52.48
2022-12-29T16:35:46.824Z,52.20
2022-12-29T16:38:15.597Z,52.05
2022-12-29T16:41:00.131Z,52.63
2022-12-29T16:43:35.212Z,53.09
2022-12-29T16:46:02.101Z,52.50
2022-12-29T16:48:32.543Z,53.13
2022-12-29T16:51:05.752Z,53.28
2022-12-29T16:53:41.488Z,53.28
2022-12-29T16:56:15.680Z,53.30
2022-12-29T16:58:49.146Z,53.62
2022-12-29T17:01:20.332Z,53.75
2022-12-29T17:03:57.888Z,54.30
2022-12-29T17:06:24.881Z,55.65
2022-12-29T17:08:52.756Z,55.24
2022-12-29T17:11:43.334Z,54.76
2022-12-29T17:14:34.606Z,55.18
2022-12-29T17:17:07.628Z,54.90
2022-12-29T17:19:37.474Z,54.42
2022-12-29T17:22:10.364Z,54.40
2022-12-29T17:24:37.201Z,54.00
2022-12-29T17:27:04.745Z,54.35
2022-12-29T17:29:36.623Z,54.67
2022-12-29T17:32:05.914Z,54.26
2022-12-29T17:34:33.816Z,55.25
2022-12-29T17:37:00.540Z,55.47
2022-12-29T17:39:27.626Z,56.02
2022-12-29T17:41:54.403Z,56.65
2022-12-29T17:44:21.863Z,55.84
2022-12-29T17:46:49.359Z,54.90
2022-12-29T17:49:18.153Z,54.86
2022-12-29T17:51:47.363Z,55.70
2022-12-29T17:54:25.946Z,54.80
2022-12-29T17:56:52.799Z,54.87
2022-12-29T17:59:19.977Z,54.76
2022-12-29T18:01:48.523Z,55.51
2022-12-29T18:04:20.173Z,56.67
2022-12-29T18:06:47.359Z,55.92
2022-12-29T18:09:14.929Z,55.80
2022-12-29T18:11:43.754Z,55.39
2022-12-29T18:14:15.313Z,55.56
2022-12-29T18:16:42.491Z,55.08
2022-12-29T18:19:09.524Z,55.01
2022-12-29T18:21:38.059Z,54.90
2022-12-29T18:24:05.322Z,54.70
2022-12-29T18:26:35.528Z,54.77
2022-12-29T18:29:02.264Z,54.81
2022-12-29T18:31:32.337Z,54.38
2022-12-29T18:34:01.839Z,55.66
2022-12-29T18:36:29.216Z,56.14
2022-12-29T18:38:56.082Z,55.58
2022-12-29T18:41:25.301Z,55.51
2022-12-29T18:43:52.241Z,55.30
2022-12-29T18:46:22.691Z,55.09
2022-12-29T18:48:53.959Z,55.58
2022-12-29T18:51:23.473Z,55.11
2022-12-29T18:53:53.772Z,56.11
2022-12-29T18:56:22.612Z,55.38
2022-12-29T18:58:50.052Z,55.68
2022-12-29T19:01:25.809Z,56.76
2022-12-29T19:03:52.875Z,56.09
2022-12-29T19:06:21.272Z,55.94
2022-12-29T19:08:48.078Z,56.83
2022-12-29T19:11:15.109Z,56.81
2022-12-29T19:13:41.815Z,56.36
2022-12-29T19:16:18.679Z,56.19
2022-12-29T19:18:50.854Z,56.33
2022-12-29T19:21:25.487Z,56.74
2022-12-29T19:23:53.186Z,57.31
2022-12-29T19:26:31.409Z,57.72
2022-12-29T19:28:59.697Z,56.93
2022-12-29T19:31:26.568Z,57.13
2022-12-29T19:33:55.122Z,57.05
2022-12-29T19:36:22.624Z,57.02
2022-12-29T19:38:49.647Z,56.95
2022-12-29T19:41:16.480Z,58.42
2022-12-29T19:43:43.337Z,58.08
2022-12-29T19:46:13.493Z,57.82
2022-12-29T19:48:41.168Z,58.03
2022-12-29T19:51:11.021Z,58.58
2022-12-29T19:53:38.179Z,57.58
2022-12-29T19:56:07.943Z,57.94
2022-12-29T19:58:36.188Z,58.97
2022-12-29T20:01:06.329Z,58.14
2022-12-29T20:03:33.876Z,57.65
2022-12-29T20:06:00.973Z,57.33
2022-12-29T20:08:27.804Z,57.11
2022-12-29T20:11:04.226Z,57.44
2022-12-29T20:13:35.657Z,57.61
2022-12-29T20:16:05.544Z,57.70
2022-12-29T20:18:32.563Z,57.40
2022-12-29T20:21:08.894Z,59.29
2022-12-29T20:23:38.815Z,59.29
2022-12-29T20:26:06.327Z,58.39
2022-12-29T20:28:33.162Z,57.77
2022-12-29T20:31:04.194Z,58.18
2022-12-29T20:33:32.188Z,58.89
2022-12-29T20:36:06.476Z,58.67
2022-12-29T20:38:33.437Z,58.25
2022-12-29T20:41:01.029Z,57.72
2022-12-29T20:43:27.870Z,58.12
2022-12-29T20:45:54.850Z,60.33
2022-12-29T20:48:21.854Z,58.38
2022-12-29T20:50:48.746Z,57.97
2022-12-29T20:53:15.480Z,60.77
2022-12-29T20:55:42.418Z,58.86
2022-12-29T20:58:25.311Z,58.84
2022-12-29T21:00:52.739Z,58.62
2022-12-29T21:03:19.754Z,58.61
2022-12-29T21:05:46.543Z,57.75
2022-12-29T21:08:13.310Z,58.66
2022-12-29T21:10:40.025Z,61.20
2022-12-29T21:13:06.805Z,58.75
2022-12-29T21:15:33.535Z,57.25
2022-12-29T21:18:01.355Z,59.46
2022-12-29T21:20:31.793Z,58.46
2022-12-29T21:23:00.784Z,57.95
2022-12-29T21:25:37.272Z,57.71
2022-12-29T21:28:08.729Z,58.17
2022-12-29T21:30:36.260Z,57.28
2022-12-29T21:33:03.354Z,58.47
2022-12-29T21:35:30.713Z,58.44
2022-12-29T21:37:57.471Z,58.32
2022-12-29T21:40:24.164Z,57.80
2022-12-29T21:42:51.130Z,58.14
2022-12-29T21:45:27.014Z,57.39
2022-12-29T21:48:13.984Z,59.32
2022-12-29T21:51:01.760Z,59.45
2022-12-29T21:53:40.571Z,58.24
2022-12-29T21:56:13.306Z,58.52
2022-12-29T21:59:03.927Z,58.43
2022-12-29T22:01:51.832Z,57.79
2022-12-29T22:04:39.749Z,57.70
2022-12-29T22:07:26.565Z,57.60
2022-12-29T22:10:11.894Z,57.49
2022-12-29T22:12:57.869Z,57.88
2022-12-29T22:15:25.891Z,57.28
2022-12-29T22:17:54.415Z,57.66
2022-12-29T22:20:25.054Z,58.06
2022-12-29T22:22:51.921Z,57.85
2022-12-29T22:25:19.226Z,58.40
2022-12-29T22:27:45.971Z,58.71
2022-12-29T22:30:13.897Z,59.26
2022-12-29T22:32:41.189Z,60.32
2022-12-29T22:35:09.704Z,59.46
2022-12-29T22:37:37.910Z,58.98
2022-12-29T22:40:05.997Z,57.93
2022-12-29T22:42:32.918Z,57.58
2022-12-29T22:44:59.647Z,57.36
2022-12-29T22:47:26.423Z,57.13
2022-12-29T22:49:53.115Z,56.93
2022-12-29T22:52:19.944Z,58.96
2022-12-29T22:54:46.727Z,57.53
2022-12-29T22:57:13.712Z,57.15
2022-12-29T22:59:40.472Z,56.51
2022-12-29T23:02:07.504Z,57.85
2022-12-29T23:05:02.342Z,56.88
2022-12-29T23:07:21.611Z,57.81
2022-12-29T23:09:48.387Z,57.40
2022-12-29T23:12:15.280Z,58.28
2022-12-29T23:14:42.000Z,57.86
2022-12-29T23:17:08.885Z,57.64
2022-12-29T23:19:35.825Z,58.78
2022-12-29T23:22:02.756Z,58.99
2022-12-29T23:24:29.497Z,58.32
2022-12-29T23:26:56.270Z,58.17
2022-12-29T23:29:23.080Z,58.48
2022-12-29T23:31:50.367Z,57.63
2022-12-29T23:34:17.643Z,58.41
2022-12-29T23:36:45.649Z,57.46
2022-12-29T23:39:19.061Z,57.94
2022-12-29T23:41:46.040Z,57.92
2022-12-29T23:44:12.742Z,57.44
2022-12-29T23:46:41.001Z,57.79
2022-12-29T23:49:09.507Z,57.82
2022-12-29T23:51:54.975Z,58.09
2022-12-29T23:54:21.685Z,57.90
2022-12-29T23:56:48.460Z,57.28
2022-12-29T23:59:15.215Z,57.46
